createdAt,value
2022-08-21T00:03:44.248Z,21.28
2022-08-21T00:08:50.078Z,21.21
2022-08-21T00:13:56.639Z,21.16
2022-08-21T00:19:02.045Z,21.06
2022-08-21T00:24:08.278Z,20.96
2022-08-21T00:29:14.469Z,20.83
2022-08-21T00:34:20.168Z,20.77
2022-08-21T00:39:25.854Z,20.75
2022-08-21T00:44:32.059Z,20.71
2022-08-21T00:49:38.402Z,20.55
2022-08-21T00:54:46.310Z,20.36
2022-08-21T00:59:59.353Z,20.20
2022-08-21T01:05:06.035Z,20.10
2022-08-21T01:10:20.579Z,19.99
2022-08-21T01:15:37.643Z,19.97
2022-08-21T01:20:46.743Z,19.87
2022-08-21T01:25:52.336Z,19.75
2022-08-21T01:30:59.336Z,19.65
2022-08-21T01:36:05.656Z,19.56
2022-08-21T01:41:11.716Z,19.44
2022-08-21T01:46:18.635Z,19.34
2022-08-21T01:51:23.983Z,19.33
2022-08-21T01:56:29.792Z,19.34
2022-08-21T02:01:35.513Z,19.36
2022-08-21T02:06:41.357Z,19.35
2022-08-21T02:11:47.040Z,19.28
2022-08-21T02:16:52.573Z,19.11
2022-08-21T02:22:12.134Z,19.03
2022-08-21T02:27:17.562Z,19.03
2022-08-21T02:32:30.310Z,18.90
2022-08-21T02:37:43.064Z,18.76
2022-08-21T02:42:48.873Z,18.64
2022-08-21T02:47:57.460Z,18.55
2022-08-21T02:53:04.020Z,18.45
2022-08-21T02:58:09.824Z,18.43
2022-08-21T03:03:15.568Z,18.45
2022-08-21T03:08:21.372Z,18.39
2022-08-21T03:13:30.172Z,18.28
2022-08-21T03:18:36.761Z,18.21
2022-08-21T03:23:44.110Z,18.23
2022-08-21T03:28:49.899Z,18.23
2022-08-21T03:33:56.369Z,18.22
2022-08-21T03:39:01.785Z,18.19
2022-08-21T03:44:07.118Z,18.23
2022-08-21T03:49:13.282Z,18.32
2022-08-21T03:54:19.176Z,18.39
2022-08-21T03:59:25.188Z,18.46
2022-08-21T04:04:31.311Z,18.56
2022-08-21T04:09:37.156Z,18.71
2022-08-21T04:14:42.887Z,18.88
2022-08-21T04:19:53.659Z,19.05
2022-08-21T04:24:59.447Z,19.23
2022-08-21T04:30:06.850Z,19.50
2022-08-21T04:35:13.761Z,20.10
2022-08-21T04:40:20.957Z,20.68
2022-08-21T04:45:28.020Z,21.08
2022-08-21T04:50:40.356Z,22.04
2022-08-21T04:55:47.257Z,23.16
2022-08-21T05:00:55.266Z,24.15
2022-08-21T05:06:00.995Z,25.01
2022-08-21T05:11:07.428Z,26.00
2022-08-21T05:16:12.999Z,27.10
2022-08-21T05:21:18.571Z,28.20
2022-08-21T05:26:24.173Z,29.20
2022-08-21T05:31:29.797Z,29.88
2022-08-21T05:36:35.323Z,30.67
2022-08-21T05:41:41.223Z,31.24
2022-08-21T05:46:46.769Z,31.72
2022-08-21T05:51:52.278Z,31.70
2022-08-21T05:56:57.951Z,31.89
2022-08-21T06:02:05.857Z,32.11
2022-08-21T06:07:12.385Z,32.75
2022-08-21T06:12:18.155Z,33.38
2022-08-21T06:17:24.596Z,34.22
2022-08-21T06:22:30.317Z,34.77
2022-08-21T06:27:35.859Z,35.00
2022-08-21T06:32:41.436Z,35.96
2022-08-21T06:37:46.779Z,36.80
2022-08-21T06:42:52.281Z,36.69
2022-08-21T06:47:57.795Z,36.62
2022-08-21T06:53:11.828Z,37.35
2022-08-21T06:58:18.120Z,37.91
2022-08-21T07:03:28.122Z,38.44
2022-08-21T07:08:33.681Z,38.75
2022-08-21T07:13:39.055Z,39.15
2022-08-21T07:18:44.929Z,39.73
2022-08-21T07:23:52.431Z,39.91
2022-08-21T07:28:58.237Z,39.79
2022-08-21T07:34:03.910Z,39.84
2022-08-21T07:39:09.338Z,39.97
2022-08-21T07:44:14.820Z,40.22
2022-08-21T07:49:20.131Z,40.53
2022-08-21T07:54:33.525Z,41.12
2022-08-21T07:59:40.086Z,41.87
2022-08-21T08:04:51.087Z,42.20
2022-08-21T08:09:57.608Z,42.65
2022-08-21T08:15:23.299Z,42.51
2022-08-21T08:20:30.031Z,42.61
2022-08-21T08:25:36.900Z,42.65
2022-08-21T08:30:43.482Z,42.64
2022-08-21T08:35:52.102Z,41.32
2022-08-21T08:41:12.953Z,41.05
2022-08-21T08:46:24.054Z,40.82
2022-08-21T08:51:40.979Z,38.74
2022-08-21T08:56:47.715Z,36.71
2022-08-21T09:01:53.255Z,35.30
2022-08-21T09:07:13.697Z,33.66
2022-08-21T09:12:26.991Z,32.58
2022-08-21T09:17:56.127Z,33.02
2022-08-21T09:23:11.296Z,35.35
2022-08-21T09:28:16.961Z,36.83
2022-08-21T09:33:22.486Z,38.06
2022-08-21T09:38:32.797Z,37.56
2022-08-21T09:43:39.970Z,38.03
2022-08-21T09:48:48.908Z,38.46
2022-08-21T09:53:59.285Z,39.34
2022-08-21T09:59:16.311Z,38.75
2022-08-21T10:04:29.496Z,37.28
2022-08-21T10:09:35.116Z,35.52
2022-08-21T10:14:51.840Z,34.13
2022-08-21T10:20:07.920Z,33.86
2022-08-21T10:25:20.735Z,34.06
2022-08-21T10:30:37.342Z,33.76
2022-08-21T10:35:51.013Z,33.43
2022-08-21T10:41:07.218Z,33.72
2022-08-21T10:46:21.038Z,33.01
2022-08-21T10:51:36.762Z,32.53
2022-08-21T10:56:44.197Z,32.18
2022-08-21T11:01:57.107Z,31.87
2022-08-21T11:07:17.253Z,31.47
2022-08-21T11:12:28.898Z,31.43
2022-08-21T11:17:38.052Z,31.23
2022-08-21T11:22:59.989Z,30.91
2022-08-21T11:28:16.466Z,30.40
2022-08-21T11:33:35.989Z,29.82
2022-08-21T11:38:43.525Z,29.58
2022-08-21T11:43:54.845Z,29.89
2022-08-21T11:49:17.725Z,30.90
2022-08-21T11:54:30.819Z,31.47
2022-08-21T11:59:43.896Z,32.22
2022-08-21T12:04:53.249Z,32.66
2022-08-21T12:10:00.159Z,32.82
2022-08-21T12:15:29.805Z,33.29
2022-08-21T12:20:58.666Z,33.39
2022-08-21T12:26:19.463Z,32.57
2022-08-21T12:31:27.418Z,31.51
2022-08-21T12:36:46.420Z,31.06
2022-08-21T12:42:01.659Z,30.67
2022-08-21T12:47:14.987Z,30.82
2022-08-21T12:52:24.265Z,30.41
2022-08-21T12:57:31.315Z,30.04
2022-08-21T13:02:43.689Z,30.55
2022-08-21T13:07:50.139Z,30.88
2022-08-21T13:12:59.513Z,30.88
2022-08-21T13:18:07.729Z,30.33
2022-08-21T13:23:24.931Z,29.74
2022-08-21T13:28:38.725Z,29.23
2022-08-21T13:33:45.000Z,29.10
2022-08-21T13:38:53.925Z,29.42
2022-08-21T13:44:02.259Z,29.78
2022-08-21T13:49:09.691Z,30.20
2022-08-21T13:54:25.791Z,30.32
2022-08-21T13:59:33.484Z,30.50
2022-08-21T14:04:53.264Z,30.68
2022-08-21T14:10:03.556Z,30.69
2022-08-21T14:15:14.322Z,30.55
2022-08-21T14:20:34.422Z,30.36
2022-08-21T14:25:44.730Z,30.30
2022-08-21T14:30:51.537Z,30.34
2022-08-21T14:36:01.856Z,30.07
2022-08-21T14:41:16.756Z,29.72
2022-08-21T14:46:25.806Z,29.34
2022-08-21T14:51:31.290Z,29.10
2022-08-21T14:56:37.524Z,28.83
2022-08-21T15:01:43.388Z,28.60
2022-08-21T15:06:49.013Z,28.49
2022-08-21T15:11:57.405Z,28.27
2022-08-21T15:17:04.690Z,28.03
2022-08-21T15:22:15.442Z,27.80
2022-08-21T15:27:24.758Z,27.58
2022-08-21T15:32:31.725Z,27.40
2022-08-21T15:37:37.607Z,27.19
2022-08-21T15:42:43.915Z,26.97
2022-08-21T15:47:51.513Z,26.80
2022-08-21T15:52:57.107Z,26.67
2022-08-21T15:58:06.057Z,26.53
2022-08-21T16:03:17.490Z,26.38
2022-08-21T16:08:23.165Z,26.22
2022-08-21T16:13:34.630Z,26.06
2022-08-21T16:18:40.764Z,25.95
2022-08-21T16:23:46.592Z,25.84
2022-08-21T16:28:57.137Z,25.71
2022-08-21T16:34:01.657Z,25.57
2022-08-21T16:39:07.334Z,25.45
2022-08-21T16:44:12.871Z,25.33
2022-08-21T16:49:18.342Z,25.23
2022-08-21T16:54:24.148Z,25.14
2022-08-21T16:59:29.666Z,25.05
2022-08-21T17:04:35.167Z,24.93
2022-08-21T17:09:40.587Z,24.80
2022-08-21T17:14:46.743Z,24.70
2022-08-21T17:19:52.308Z,24.57
2022-08-21T17:24:58.174Z,24.44
2022-08-21T17:30:05.898Z,24.21
2022-08-21T17:35:12.869Z,24.02
2022-08-21T17:40:20.316Z,23.83
2022-08-21T17:45:26.159Z,23.63
2022-08-21T17:50:31.728Z,23.48
2022-08-21T17:55:41.607Z,23.28
2022-08-21T18:00:52.693Z,23.03
2022-08-21T18:06:03.220Z,22.83
2022-08-21T18:11:09.055Z,22.68
2022-08-21T18:16:19.655Z,22.53
2022-08-21T18:21:25.614Z,22.35
2022-08-21T18:26:34.930Z,22.18
2022-08-21T18:31:43.641Z,22.03
2022-08-21T18:36:49.432Z,21.83
2022-08-21T18:41:56.011Z,21.65
2022-08-21T18:47:04.771Z,21.48
2022-08-21T18:52:10.414Z,21.34
2022-08-21T18:57:29.315Z,21.24
2022-08-21T19:02:34.852Z,21.17
2022-08-21T19:07:40.732Z,21.06
2022-08-21T19:12:47.477Z,20.93
2022-08-21T19:17:54.496Z,20.80
2022-08-21T19:23:01.055Z,20.70
2022-08-21T19:28:11.186Z,20.63
2022-08-21T19:33:23.644Z,20.57
2022-08-21T19:38:30.007Z,20.48
2022-08-21T19:43:42.620Z,20.39
2022-08-21T19:48:46.926Z,20.31
2022-08-21T19:53:57.537Z,20.20
2022-08-21T19:59:07.550Z,20.11
2022-08-21T20:04:19.573Z,20.01
2022-08-21T20:09:25.367Z,19.94
2022-08-21T20:14:32.955Z,19.88
2022-08-21T20:19:41.284Z,19.83
2022-08-21T20:24:46.826Z,19.76
2022-08-21T20:29:52.906Z,19.72
2022-08-21T20:34:59.082Z,19.63
2022-08-21T20:40:10.271Z,19.58
2022-08-21T20:45:20.498Z,19.52
2022-08-21T20:50:28.855Z,19.39
2022-08-21T20:55:37.397Z,19.28
2022-08-21T21:00:44.512Z,19.22
2022-08-21T21:05:57.543Z,19.16
2022-08-21T21:11:07.343Z,19.03
2022-08-21T21:16:17.710Z,18.97
2022-08-21T21:21:33.124Z,18.91
2022-08-21T21:26:48.830Z,18.84
2022-08-21T21:31:55.800Z,18.76
2022-08-21T21:37:06.898Z,18.70
2022-08-21T21:42:29.818Z,18.66
2022-08-21T21:47:47.512Z,18.62
2022-08-21T21:53:12.795Z,18.63
2022-08-21T21:58:43.912Z,18.62
2022-08-21T22:03:59.298Z,18.63
2022-08-21T22:09:18.134Z,18.59
2022-08-21T22:14:29.863Z,18.58
2022-08-21T22:19:41.182Z,18.64
2022-08-21T22:24:49.689Z,18.66
2022-08-21T22:29:58.376Z,18.63
2022-08-21T22:35:16.095Z,18.53
2022-08-21T22:40:26.514Z,18.41
2022-08-21T22:45:37.939Z,18.33
2022-08-21T22:50:54.101Z,18.21
2022-08-21T22:56:02.153Z,18.10
2022-08-21T23:01:16.867Z,18.03
2022-08-21T23:06:29.586Z,17.99
2022-08-21T23:11:40.623Z,17.96
2022-08-21T23:16:56.011Z,18.00
2022-08-21T23:22:17.322Z,18.03
2022-08-21T23:27:32.589Z,18.07
2022-08-21T23:33:07.411Z,17.99
2022-08-21T23:38:23.007Z,17.90
2022-08-21T23:43:44.414Z,17.92
2022-08-21T23:55:34.403Z,17.84
